Milburn, KY (42070)

6:18 AM CDT on July 30, 2014 (GMT -0500)
Wingo, Ky (KKYWINGO2) Elev 499 ft | 36.64 °N, 88.73 °W | Change Station

Current weather conditions updated 1 second ago

Clear
Clear
59.5 °F
Feels Like 59.5 °F
N
0.0
Wind Variable Wind from North
Gusts 0.0 mph

Today is forecast to be nearly the same temperature as yesterday.

Today
High -- | Low -- °F
--% Chance of Precip.
Yesterday
High -- | Low -- °F
Precip. -- in
5:59 AM 8:03 PM
Waxing Crescent, 11% visible
Pressure 30.11 in
Visibility 10.0 miles
Clouds Clear
Dew Point 58 °F
Humidity 93%
Rainfall 0.00 in
Snow Depth Not available.
UV 0 out of 12
Pollen 6.70 out of 12
Air Quality Not available.
Flu Activity Not available.
METAR KM25 301115Z AUTO 00000KT 10SM CLR 13/12 A3011 RMK AO2

More Conditions Fewer Conditions

Pressure 30.11 in
Visibility 10.0 miles
Clouds Clear
Dew Point 58 °F
Humidity 93%
Rainfall 0.00 in
Snow Depth Not available.
UV 0 out of 12
Pollen 6.70 out of 12
Air Quality Not available.
Flu Activity Not available.
METAR KM25 301115Z AUTO 00000KT 10SM CLR 13/12 A3011 RMK AO2

More Conditions Fewer Conditions

10-Day Weather Forecast

Almanac

Astronomy

Jul. 30, 2014 Rise Set
Actual Time 5:59 AM CDT 8:03 PM CDT
Civil Twilight 5:30 AM CDT 8:32 PM CDT
Nautical Twilight 4:55 AM CDT 9:07 PM CDT
Astronomical Twilight 4:17 AM CDT 9:45 PM CDT
Moon 9:24 AM CDT 9:53 PM CDT
Length of Visible Light 15h 01m
Length of Day
14h 04m
Tomorrow will be 1m 43s shorter.
Waxing Crescent, 11% of the Moon is Illuminated
Today
Waxing Crescent
Aug 3
First Quarter
Aug 10
Full
Aug 17
Last Quarter
Aug 25
New

Today's Extremes

State Highs State Lows

Community

WunderPhotos

Upload Photos

1,739,039 photos uploaded!

Nearby

Snow Depth

Station Depth Elevation
No new snow has been reported.

Earthquake Activity

City Distance Mag. Time & Date
No recent earthquake activity has been reported nearby.
Minimum magnitude displayed is 2.5.

Coastal Water Temperatures

Place Temperature
No Stations Reporting

Nearby Weather Stations

Station Location Temp. Dew Point Humidity Wind Precip. Elev Updated Type
Wingo, Ky, Wingo, KY 59.5 °F 58 °F 93% North  at  0.0 mph 0.00 in / hr 499 ft 6:18 AM CDT Rapid Fire
South Adkins Dixon Road, Wickliffe, KY 57.3 °F 56 °F 94% WSW  at  0.0 mph 0.00 in / hr 443 ft 6:18 AM CDT Rapid Fire
hopewell rd, Boaz, KY 52.1 °F 51 °F 95% SW  at  0.0 mph 0.00 in / hr 400 ft 6:07 AM CDT Normal
Heath, West Paducah, KY 54.3 °F 44 °F 69% North  at  0.0 mph 0.00 in / hr 404 ft 6:18 AM CDT Rapid Fire
Grahamville, West Paducah, KY 61.5 °F 57 °F 84% ENE  at  2.0 mph 0.00 in / hr 390 ft 6:17 AM CDT Normal
Dukedom, TN 55.6 °F 54 °F 96% ENE  at  0.0 mph 0.00 in / hr 486 ft 5:59 AM CDT Normal

Show More Stations Show Fewer Stations